createdAt,value
2018-09-26T00:03:21.801Z,100089.55
2018-09-26T00:05:49.996Z,100087.91
2018-09-26T00:08:18.401Z,100085.46
2018-09-26T00:10:47.023Z,100072.88
2018-09-26T00:13:15.291Z,100072.10
2018-09-26T00:15:43.541Z,100062.73
2018-09-26T00:18:11.808Z,100064.74
2018-09-26T00:20:39.993Z,100065.89
2018-09-26T00:23:08.389Z,100054.72
2018-09-26T00:25:37.209Z,100048.56
2018-09-26T00:28:05.439Z,100038.61
2018-09-26T00:30:33.619Z,100031.15
2018-09-26T00:33:01.833Z,100034.04
2018-09-26T00:35:29.997Z,100046.35
2018-09-26T00:37:58.297Z,100051.28
2018-09-26T00:40:26.534Z,100047.16
2018-09-26T00:42:54.715Z,100039.70
2018-09-26T00:45:22.861Z,100038.20
2018-09-26T00:47:51.112Z,100035.70
2018-09-26T00:50:19.295Z,100023.92
2018-09-26T00:52:47.466Z,100018.91
2018-09-26T00:55:15.658Z,100013.69
2018-09-26T00:57:43.862Z,100007.20
2018-09-26T01:00:12.074Z,100007.69
2018-09-26T01:02:40.266Z,100009.23
2018-09-26T01:05:08.438Z,99993.94
2018-09-26T01:07:36.625Z,99999.94
2018-09-26T01:10:04.910Z,99988.27
2018-09-26T01:12:33.142Z,99987.54
2018-09-26T01:15:01.332Z,99995.38
2018-09-26T01:17:29.556Z,99988.52
2018-09-26T01:19:57.745Z,99991.16
2018-09-26T01:22:25.926Z,99994.25
2018-09-26T01:24:54.140Z,99989.06
2018-09-26T01:27:22.317Z,99981.90
2018-09-26T01:29:50.504Z,99972.85
2018-09-26T01:32:18.992Z,99969.79
2018-09-26T01:34:47.202Z,99973.50
2018-09-26T01:37:15.340Z,99964.65
2018-09-26T01:39:43.520Z,99962.59
2018-09-26T01:42:11.737Z,99968.02
2018-09-26T01:44:39.947Z,99962.93
2018-09-26T01:47:08.132Z,99964.61
2018-09-26T01:49:36.310Z,99965.00
2018-09-26T01:52:04.476Z,99970.95
2018-09-26T01:54:32.670Z,99967.16
2018-09-26T01:57:00.842Z,99969.41
2018-09-26T01:59:29.072Z,99973.67
2018-09-26T02:01:57.273Z,99971.47
2018-09-26T02:04:25.440Z,99964.31
2018-09-26T02:06:53.614Z,99955.53
2018-09-26T02:09:22.109Z,99960.09
2018-09-26T02:11:50.289Z,99962.78
2018-09-26T02:14:18.533Z,99965.23
2018-09-26T02:16:46.724Z,99964.66
2018-09-26T02:19:14.905Z,99966.00
2018-09-26T02:21:43.198Z,99976.92
2018-09-26T02:24:11.739Z,99970.34
2018-09-26T02:26:39.917Z,99970.87
2018-09-26T02:29:08.229Z,99971.11
2018-09-26T02:31:36.433Z,99969.09
2018-09-26T02:34:04.629Z,99957.61
2018-09-26T02:36:32.797Z,99954.83
2018-09-26T02:39:01.093Z,99947.53
2018-09-26T02:41:29.279Z,99941.53
2018-09-26T02:43:57.492Z,99942.48
2018-09-26T02:46:25.843Z,99948.67
2018-09-26T02:48:59.306Z,99943.64
2018-09-26T02:51:27.499Z,99944.56
2018-09-26T02:53:55.681Z,99932.36
2018-09-26T02:56:23.863Z,99941.23
2018-09-26T02:58:52.057Z,99938.08
2018-09-26T03:01:20.240Z,99947.34
2018-09-26T03:03:48.444Z,99945.98
2018-09-26T03:06:16.682Z,99941.43
2018-09-26T03:08:44.862Z,99936.68
2018-09-26T03:11:13.081Z,99937.84
2018-09-26T03:13:41.372Z,99931.73
2018-09-26T03:16:09.636Z,99921.03
2018-09-26T03:18:38.158Z,99918.50
2018-09-26T03:21:06.341Z,99924.88
2018-09-26T03:23:34.528Z,99912.55
2018-09-26T03:26:02.966Z,99908.71
2018-09-26T03:28:31.154Z,99912.84
2018-09-26T03:30:59.335Z,99903.63
2018-09-26T03:33:27.499Z,99903.28
2018-09-26T03:35:55.755Z,99898.68
2018-09-26T03:38:23.924Z,99888.13
2018-09-26T03:40:52.409Z,99882.50
2018-09-26T03:43:20.603Z,99882.98
2018-09-26T03:45:48.862Z,99874.06
2018-09-26T03:48:18.428Z,99875.64
2018-09-26T03:50:46.632Z,99866.58
2018-09-26T03:53:14.818Z,99861.01
2018-09-26T03:55:43.007Z,99865.95
2018-09-26T03:58:11.216Z,99867.29
2018-09-26T04:00:39.398Z,99867.62
2018-09-26T04:03:07.580Z,99872.19
2018-09-26T04:05:36.098Z,99871.84
2018-09-26T04:08:04.372Z,99873.24
2018-09-26T04:10:32.554Z,99881.97
2018-09-26T04:13:00.759Z,99886.77
2018-09-26T04:15:29.004Z,99884.52
2018-09-26T04:17:57.166Z,99886.05
2018-09-26T04:20:25.532Z,99892.77
2018-09-26T04:22:53.633Z,99901.87
2018-09-26T04:25:21.810Z,99905.48
2018-09-26T04:27:52.905Z,99903.17
2018-09-26T04:30:21.120Z,99897.08
2018-09-26T04:32:49.380Z,99900.20
2018-09-26T04:35:17.522Z,99904.86
2018-09-26T04:37:46.045Z,99905.09
2018-09-26T04:40:14.241Z,99899.62
2018-09-26T04:42:42.473Z,99908.25
2018-09-26T04:45:10.645Z,99914.78
2018-09-26T04:47:39.321Z,99913.20
2018-09-26T04:50:07.525Z,99906.91
2018-09-26T04:52:35.705Z,99903.80
2018-09-26T04:55:03.901Z,99899.88
2018-09-26T04:57:32.080Z,99892.91
2018-09-26T05:00:00.261Z,99900.40
2018-09-26T05:02:28.460Z,99898.10
2018-09-26T05:04:56.630Z,99902.47
2018-09-26T05:07:24.822Z,99909.28
2018-09-26T05:09:53.034Z,99907.23
2018-09-26T05:12:21.780Z,99918.63
2018-09-26T05:14:50.063Z,99920.02
2018-09-26T05:17:18.174Z,99917.86
2018-09-26T05:19:46.422Z,99911.14
2018-09-26T05:22:14.778Z,99918.24
2018-09-26T05:24:43.014Z,99925.42
2018-09-26T05:27:11.218Z,99923.59
2018-09-26T05:29:39.415Z,99917.25
2018-09-26T05:32:07.726Z,99913.88
2018-09-26T05:34:35.914Z,99912.17
2018-09-26T05:37:04.093Z,99923.59
2018-09-26T05:39:32.283Z,99922.36
2018-09-26T05:42:00.477Z,99930.69
2018-09-26T05:44:28.761Z,99927.09
2018-09-26T05:46:56.949Z,99914.78
2018-09-26T05:49:25.132Z,99918.25
2018-09-26T05:51:53.344Z,99922.70
2018-09-26T05:54:21.544Z,99919.09
2018-09-26T05:56:49.800Z,99919.17
2018-09-26T05:59:18.014Z,99905.11
2018-09-26T06:01:46.220Z,99908.41
2018-09-26T06:04:14.393Z,99902.02
2018-09-26T06:06:42.588Z,99903.44
2018-09-26T06:09:12.725Z,99901.77
2018-09-26T06:11:41.255Z,99903.75
2018-09-26T06:14:10.317Z,99903.19
2018-09-26T06:16:38.552Z,99895.92
2018-09-26T06:19:07.518Z,99886.91
2018-09-26T06:21:35.834Z,99882.07
2018-09-26T06:24:04.467Z,99886.09
2018-09-26T06:26:32.910Z,99891.14
2018-09-26T06:29:01.146Z,99878.64
2018-09-26T06:31:29.549Z,99874.42
2018-09-26T06:33:57.733Z,99885.30
2018-09-26T06:36:26.161Z,99883.70
2018-09-26T06:38:54.447Z,99887.21
2018-09-26T06:41:22.649Z,99886.23
2018-09-26T06:43:50.887Z,99875.11
2018-09-26T06:46:19.064Z,99870.97
2018-09-26T06:48:47.255Z,99879.83
2018-09-26T06:51:15.435Z,99877.30
2018-09-26T06:56:39.393Z,99868.56
2018-09-26T06:59:07.641Z,99860.73
2018-09-26T07:01:35.805Z,99853.56
2018-09-26T07:04:03.993Z,99860.12
2018-09-26T07:06:32.191Z,99861.10
2018-09-26T07:09:00.474Z,99860.11
2018-09-26T07:11:28.749Z,99866.34
2018-09-26T07:13:56.927Z,99871.20
2018-09-26T07:16:25.489Z,99873.12
2018-09-26T07:18:53.698Z,99883.94
2018-09-26T07:21:22.145Z,99881.47
2018-09-26T07:23:50.314Z,99883.08
2018-09-26T07:26:18.512Z,99887.87
2018-09-26T07:28:46.733Z,99906.27
2018-09-26T07:31:14.917Z,99897.56
2018-09-26T07:33:43.274Z,99893.70
2018-09-26T07:36:11.474Z,99874.19
2018-09-26T07:38:39.642Z,99870.13
2018-09-26T07:41:07.906Z,99864.19
2018-09-26T07:43:36.223Z,99857.41
2018-09-26T07:46:04.390Z,99847.21
2018-09-26T07:48:34.887Z,99852.73
2018-09-26T07:51:03.060Z,99850.11
2018-09-26T07:53:31.237Z,99839.81
2018-09-26T07:55:59.462Z,99850.95
2018-09-26T07:58:27.714Z,99855.18
2018-09-26T08:00:56.036Z,99853.52
2018-09-26T08:03:24.293Z,99849.01
2018-09-26T08:05:52.582Z,99855.70
2018-09-26T08:08:20.984Z,99854.00
2018-09-26T08:10:49.221Z,99855.82
2018-09-26T08:13:17.493Z,99857.09
2018-09-26T08:15:45.757Z,99860.77
2018-09-26T08:18:13.998Z,99862.70
2018-09-26T08:20:42.205Z,99859.69
2018-09-26T08:23:10.369Z,99867.22
2018-09-26T08:25:38.586Z,99872.24
2018-09-26T08:28:06.836Z,99872.67
2018-09-26T08:30:35.005Z,99881.12
2018-09-26T08:33:03.188Z,99873.66
2018-09-26T08:35:31.344Z,99875.62
2018-09-26T08:37:59.540Z,99873.47
2018-09-26T08:40:27.722Z,99865.08
2018-09-26T08:42:55.890Z,99868.62
2018-09-26T08:45:24.126Z,99864.41
2018-09-26T08:47:52.341Z,99859.11
2018-09-26T08:50:20.597Z,99860.45
2018-09-26T08:52:48.777Z,99867.08
2018-09-26T08:55:16.962Z,99862.37
2018-09-26T08:57:45.119Z,99864.81
2018-09-26T09:00:13.421Z,99864.80
2018-09-26T09:02:41.696Z,99853.01
2018-09-26T09:05:16.429Z,99850.58
2018-09-26T09:07:44.696Z,99842.16
2018-09-26T09:10:12.967Z,99840.05
2018-09-26T09:12:41.143Z,99837.75
2018-09-26T09:15:09.329Z,99844.81
2018-09-26T09:17:37.809Z,99848.87
2018-09-26T09:20:06.397Z,99841.00
2018-09-26T09:22:34.553Z,99831.88
2018-09-26T09:25:02.748Z,99834.91
2018-09-26T09:27:30.945Z,99835.08
2018-09-26T09:29:59.118Z,99828.00
2018-09-26T09:32:27.351Z,99823.14
2018-09-26T09:34:55.513Z,99832.69
2018-09-26T09:37:23.694Z,99825.30
2018-09-26T09:39:51.862Z,99837.58
2018-09-26T09:42:20.134Z,99836.47
2018-09-26T09:44:48.318Z,99822.64
2018-09-26T09:47:16.480Z,99832.00
2018-09-26T09:49:44.667Z,99830.30
2018-09-26T09:52:12.852Z,99830.33
2018-09-26T09:54:41.030Z,99833.69
2018-09-26T09:57:09.194Z,99825.72
2018-09-26T09:59:37.635Z,99820.05
2018-09-26T10:02:05.975Z,99808.81
2018-09-26T10:04:34.126Z,99807.59
2018-09-26T10:07:02.413Z,99813.83
2018-09-26T10:09:30.566Z,99811.73
2018-09-26T10:11:58.809Z,99821.58
2018-09-26T10:14:27.100Z,99818.44
2018-09-26T10:16:55.200Z,99807.38
2018-09-26T10:19:23.685Z,99810.53
2018-09-26T10:21:51.873Z,99810.30
2018-09-26T10:24:20.045Z,99796.97
2018-09-26T10:26:48.309Z,99799.02
2018-09-26T10:29:16.645Z,99791.20
2018-09-26T10:31:44.866Z,99786.77
2018-09-26T10:34:13.025Z,99786.06
2018-09-26T10:36:41.331Z,99771.78
2018-09-26T10:39:10.157Z,99766.77
2018-09-26T10:41:38.376Z,99766.84
2018-09-26T10:44:07.063Z,99756.68
2018-09-26T10:46:35.219Z,99761.86
2018-09-26T10:49:03.355Z,99759.25
2018-09-26T10:51:31.602Z,99764.30
2018-09-26T10:53:59.778Z,99760.22
2018-09-26T10:56:28.096Z,99748.07
2018-09-26T10:58:56.238Z,99740.80
2018-09-26T11:01:24.478Z,99735.31
2018-09-26T11:03:52.670Z,99732.01
2018-09-26T11:06:21.047Z,99729.33
2018-09-26T11:08:49.238Z,99722.31
2018-09-26T11:11:17.494Z,99716.45
2018-09-26T11:13:45.753Z,99721.29
2018-09-26T11:16:13.941Z,99727.75
2018-09-26T11:18:42.152Z,99716.52
2018-09-26T11:21:10.347Z,99718.30
2018-09-26T11:23:38.620Z,99722.27
2018-09-26T11:26:06.843Z,99720.29
2018-09-26T11:28:34.967Z,99713.05
2018-09-26T11:31:03.149Z,99703.53
2018-09-26T11:33:31.396Z,99710.53
2018-09-26T11:35:59.683Z,99702.35
2018-09-26T11:38:27.937Z,99702.81
2018-09-26T11:40:56.108Z,99691.27
2018-09-26T11:43:24.306Z,99693.59
2018-09-26T11:45:52.561Z,99689.92
2018-09-26T11:48:21.597Z,99686.13
2018-09-26T11:50:50.361Z,99681.17
2018-09-26T11:53:18.656Z,99675.17
2018-09-26T11:55:46.806Z,99669.50
2018-09-26T11:58:15.166Z,99669.94
2018-09-26T12:00:43.334Z,99667.66
2018-09-26T12:03:11.569Z,99664.59
2018-09-26T12:05:39.726Z,99666.68
2018-09-26T12:08:08.010Z,99658.09
2018-09-26T12:10:36.125Z,99661.16
2018-09-26T12:13:04.409Z,99657.19
2018-09-26T12:15:32.679Z,99657.34
2018-09-26T12:18:00.835Z,99656.16
2018-09-26T12:20:29.134Z,99654.00
2018-09-26T12:22:57.289Z,99648.31
2018-09-26T12:25:25.558Z,99641.87
2018-09-26T12:27:53.711Z,99636.69
2018-09-26T12:30:22.041Z,99630.29
2018-09-26T12:32:50.415Z,99622.80
2018-09-26T12:35:18.586Z,99621.41
2018-09-26T12:37:46.744Z,99614.17
2018-09-26T12:40:14.958Z,99610.67
2018-09-26T12:42:43.139Z,99618.16
2018-09-26T12:45:11.630Z,99615.41
2018-09-26T12:47:40.189Z,99613.06
2018-09-26T12:50:08.389Z,99606.16
2018-09-26T12:52:36.609Z,99604.94
2018-09-26T12:55:04.787Z,99609.11
2018-09-26T12:57:32.960Z,99606.29
2018-09-26T13:00:01.131Z,99609.45
2018-09-26T13:02:29.358Z,99593.41
2018-09-26T13:04:57.482Z,99591.66
2018-09-26T13:07:25.640Z,99590.84
2018-09-26T13:09:53.829Z,99580.04
2018-09-26T13:12:22.066Z,99574.44
2018-09-26T13:14:50.231Z,99572.43
2018-09-26T13:17:18.387Z,99568.55
2018-09-26T13:19:46.556Z,99571.72
2018-09-26T13:22:14.758Z,99565.87
2018-09-26T13:24:42.866Z,99565.67
2018-09-26T13:27:11.141Z,99563.24
2018-09-26T13:29:39.333Z,99559.06
2018-09-26T13:32:07.563Z,99556.78
2018-09-26T13:34:35.698Z,99552.33
2018-09-26T13:37:04.713Z,99544.46
2018-09-26T13:39:32.946Z,99547.53
2018-09-26T13:42:01.055Z,99548.34
2018-09-26T13:44:29.823Z,99549.83
2018-09-26T13:46:57.983Z,99540.20
2018-09-26T13:49:26.259Z,99530.80
2018-09-26T13:51:54.414Z,99526.88
2018-09-26T13:54:22.629Z,99530.11
2018-09-26T13:56:51.411Z,99532.45
2018-09-26T13:59:19.674Z,99527.52
2018-09-26T14:01:47.850Z,99523.80
2018-09-26T14:04:16.084Z,99521.61
2018-09-26T14:06:44.178Z,99514.70
2018-09-26T14:09:12.340Z,99517.20
2018-09-26T14:11:40.573Z,99512.70
2018-09-26T14:14:08.780Z,99509.19
2018-09-26T14:16:37.023Z,99511.09
2018-09-26T14:19:05.422Z,99497.50
2018-09-26T14:21:35.344Z,99499.84
2018-09-26T14:24:03.608Z,99500.30
2018-09-26T14:26:31.784Z,99503.16
2018-09-26T14:29:00.042Z,99494.12
2018-09-26T14:31:28.353Z,99495.08
2018-09-26T14:33:57.250Z,99496.07
2018-09-26T14:36:29.134Z,99492.62
2018-09-26T14:38:58.090Z,99498.34
2018-09-26T14:41:26.330Z,99491.30
2018-09-26T14:43:54.401Z,99492.12
2018-09-26T14:46:23.189Z,99482.83
2018-09-26T14:48:51.357Z,99484.31
2018-09-26T14:51:19.612Z,99490.13
2018-09-26T14:53:47.916Z,99482.30
2018-09-26T14:56:16.256Z,99477.25
2018-09-26T14:58:44.510Z,99482.08
2018-09-26T15:01:12.692Z,99481.75
2018-09-26T15:03:41.020Z,99485.18
2018-09-26T15:06:09.318Z,99479.92
2018-09-26T15:08:37.526Z,99483.00
2018-09-26T15:11:05.876Z,99469.51
2018-09-26T15:13:34.061Z,99475.80
2018-09-26T15:16:02.246Z,99471.43
2018-09-26T15:18:30.397Z,99478.72
2018-09-26T15:20:58.549Z,99471.22
2018-09-26T15:23:27.029Z,99465.67
2018-09-26T15:25:55.244Z,99467.91
2018-09-26T15:28:23.446Z,99467.80
2018-09-26T15:30:51.636Z,99473.03
2018-09-26T15:33:19.805Z,99475.20
2018-09-26T15:35:47.992Z,99468.67
2018-09-26T15:38:16.703Z,99468.55
2018-09-26T15:40:44.880Z,99469.73
2018-09-26T15:43:13.054Z,99473.84
2018-09-26T15:45:41.272Z,99473.94
2018-09-26T15:48:09.472Z,99485.58
2018-09-26T15:50:37.672Z,99488.18
2018-09-26T15:53:05.946Z,99484.67
2018-09-26T15:55:34.209Z,99493.37
2018-09-26T15:58:02.297Z,99489.55
2018-09-26T16:00:30.564Z,99484.67
2018-09-26T16:02:58.854Z,99492.70
2018-09-26T16:05:27.030Z,99485.85
2018-09-26T16:07:55.508Z,99489.23
2018-09-26T16:10:23.778Z,99483.40
2018-09-26T16:12:51.944Z,99487.80
2018-09-26T16:15:20.238Z,99482.36
2018-09-26T16:17:48.422Z,99481.23
2018-09-26T16:20:16.621Z,99479.62
2018-09-26T16:22:44.833Z,99483.77
2018-09-26T16:25:13.067Z,99484.73
2018-09-26T16:27:41.398Z,99482.84
2018-09-26T16:30:09.989Z,99488.20
2018-09-26T16:32:38.163Z,99497.20
2018-09-26T16:35:06.544Z,99497.69
2018-09-26T16:37:34.740Z,99493.22
2018-09-26T16:40:02.934Z,99495.11
2018-09-26T16:42:31.109Z,99505.03
2018-09-26T16:44:59.310Z,99508.99
2018-09-26T16:47:27.486Z,99502.79
2018-09-26T16:49:55.683Z,99505.26
2018-09-26T16:52:23.945Z,99504.39
2018-09-26T16:57:55.202Z,99503.06
2018-09-26T17:00:23.423Z,99509.83
2018-09-26T17:02:51.533Z,99510.03
2018-09-26T17:05:19.823Z,99516.08
2018-09-26T17:07:48.247Z,99515.13
2018-09-26T17:10:16.437Z,99516.44
2018-09-26T17:12:44.876Z,99523.49
2018-09-26T17:15:13.150Z,99520.93
2018-09-26T17:17:41.361Z,99517.48
2018-09-26T17:20:09.728Z,99513.70
2018-09-26T17:22:37.861Z,99527.20
2018-09-26T17:25:06.090Z,99526.25
2018-09-26T17:27:34.279Z,99518.86
2018-09-26T17:30:02.506Z,99527.69
2018-09-26T17:32:37.476Z,99524.80
2018-09-26T17:35:05.769Z,99526.94
2018-09-26T17:37:34.006Z,99532.65
2018-09-26T17:40:02.317Z,99528.34
2018-09-26T17:42:30.591Z,99531.00
2018-09-26T17:44:58.799Z,99538.88
2018-09-26T17:47:27.002Z,99539.41
2018-09-26T17:49:55.213Z,99539.62
2018-09-26T17:52:23.545Z,99534.34
2018-09-26T17:54:51.705Z,99537.28
2018-09-26T17:57:19.937Z,99543.87
2018-09-26T17:59:48.130Z,99547.61
2018-09-26T18:02:16.667Z,99548.48
2018-09-26T18:04:44.857Z,99549.17
2018-09-26T18:07:13.037Z,99552.91
2018-09-26T18:09:41.314Z,99551.86
2018-09-26T18:12:09.588Z,99550.69
2018-09-26T18:14:37.772Z,99546.94
2018-09-26T18:17:06.048Z,99544.53
2018-09-26T18:19:34.251Z,99545.64
2018-09-26T18:22:02.433Z,99548.69
2018-09-26T18:24:31.422Z,99555.02
2018-09-26T18:26:59.682Z,99554.34
2018-09-26T18:29:27.866Z,99556.30
2018-09-26T18:31:56.077Z,99552.48
2018-09-26T18:34:24.258Z,99553.02
2018-09-26T18:36:52.448Z,99559.16
2018-09-26T18:39:20.813Z,99561.78
2018-09-26T18:41:49.020Z,99560.28
2018-09-26T18:44:17.579Z,99568.33
2018-09-26T18:46:45.789Z,99567.27
2018-09-26T18:49:13.982Z,99570.27
2018-09-26T18:51:42.166Z,99576.89
2018-09-26T18:54:10.361Z,99577.14
2018-09-26T18:56:38.554Z,99578.64
2018-09-26T18:59:06.903Z,99570.83
2018-09-26T19:01:35.351Z,99579.56
2018-09-26T19:04:03.603Z,99579.17
2018-09-26T19:06:32.186Z,99584.55
2018-09-26T19:09:00.535Z,99580.70
2018-09-26T19:11:28.829Z,99583.53
2018-09-26T19:13:57.055Z,99578.99
2018-09-26T19:16:25.286Z,99579.60
2018-09-26T19:18:53.678Z,99579.98
2018-09-26T19:21:21.913Z,99578.16
2018-09-26T19:23:50.133Z,99581.78
2018-09-26T19:26:18.413Z,99580.35
2018-09-26T19:28:46.618Z,99580.63
2018-09-26T19:31:15.455Z,99580.11
2018-09-26T19:33:43.969Z,99581.37
2018-09-26T19:36:12.360Z,99579.31
2018-09-26T19:38:40.604Z,99580.52
2018-09-26T19:41:08.848Z,99585.36
2018-09-26T19:43:37.094Z,99577.73
2018-09-26T19:46:05.356Z,99580.20
2018-09-26T19:48:35.742Z,99571.03
2018-09-26T19:51:04.128Z,99579.11
2018-09-26T19:53:32.292Z,99582.69
2018-09-26T19:56:00.646Z,99583.48
2018-09-26T19:58:28.896Z,99590.59
2018-09-26T20:00:57.049Z,99591.97
2018-09-26T20:03:25.305Z,99588.04
2018-09-26T20:05:53.533Z,99592.64
2018-09-26T20:08:21.844Z,99589.15
2018-09-26T20:10:50.027Z,99597.96
2018-09-26T20:13:18.255Z,99597.81
2018-09-26T20:15:46.521Z,99603.31
2018-09-26T20:18:14.751Z,99595.90
2018-09-26T20:20:43.024Z,99597.03
2018-09-26T20:23:11.381Z,99599.23
2018-09-26T20:25:39.419Z,99606.75
2018-09-26T20:28:07.613Z,99603.52
2018-09-26T20:30:35.997Z,99607.97
2018-09-26T20:33:04.288Z,99599.53
2018-09-26T20:35:32.508Z,99609.59
2018-09-26T20:38:00.657Z,99602.60
2018-09-26T20:40:28.834Z,99604.83
2018-09-26T20:42:57.094Z,99596.81
2018-09-26T20:45:25.326Z,99603.55
2018-09-26T20:47:53.455Z,99608.32
2018-09-26T20:50:21.628Z,99606.67
2018-09-26T20:52:49.853Z,99606.44
2018-09-26T20:55:18.082Z,99608.78
2018-09-26T20:57:46.349Z,99609.85
2018-09-26T21:00:14.638Z,99613.41
2018-09-26T21:02:43.818Z,99614.53
2018-09-26T21:05:12.343Z,99617.92
2018-09-26T21:07:40.689Z,99609.59
2018-09-26T21:10:09.593Z,99612.35
2018-09-26T21:12:37.777Z,99612.02
2018-09-26T21:15:06.022Z,99614.50
2018-09-26T21:17:35.009Z,99605.80
2018-09-26T21:20:03.442Z,99600.42
2018-09-26T21:22:31.722Z,99597.77
2018-09-26T21:25:01.245Z,99593.93
2018-09-26T21:27:29.550Z,99597.55
2018-09-26T21:29:57.761Z,99596.77
2018-09-26T21:32:25.935Z,99583.95
2018-09-26T21:34:54.100Z,99588.92
2018-09-26T21:37:22.289Z,99592.57
2018-09-26T21:39:50.455Z,99592.69
2018-09-26T21:42:18.633Z,99598.95
2018-09-26T21:44:46.813Z,99601.50
2018-09-26T21:47:14.981Z,99594.81
2018-09-26T21:49:43.133Z,99597.28
2018-09-26T21:52:11.293Z,99592.47
2018-09-26T21:54:39.479Z,99592.31
2018-09-26T21:57:07.905Z,99601.81
2018-09-26T21:59:36.101Z,99599.93
2018-09-26T22:02:04.260Z,99602.42
2018-09-26T22:04:32.434Z,99611.34
2018-09-26T22:07:00.752Z,99604.84
2018-09-26T22:09:29.010Z,99606.47
2018-09-26T22:11:57.261Z,99601.83
2018-09-26T22:14:25.613Z,99606.95
2018-09-26T22:16:53.765Z,99607.78
2018-09-26T22:19:21.992Z,99618.33
2018-09-26T22:21:50.169Z,99612.39
2018-09-26T22:24:18.329Z,99619.77
2018-09-26T22:26:46.480Z,99600.52
2018-09-26T22:29:14.797Z,99606.23
2018-09-26T22:31:42.987Z,99610.27
2018-09-26T22:34:11.441Z,99603.54
2018-09-26T22:36:39.633Z,99594.89
2018-09-26T22:39:09.177Z,99599.20
2018-09-26T22:41:37.388Z,99603.79
2018-09-26T22:44:05.615Z,99605.14
2018-09-26T22:46:33.773Z,99607.06
2018-09-26T22:49:02.171Z,99606.81
2018-09-26T22:51:30.575Z,99605.48
2018-09-26T22:53:58.810Z,99604.66
2018-09-26T22:56:26.965Z,99606.28
2018-09-26T22:58:55.125Z,99609.01
2018-09-26T23:01:23.709Z,99607.94
2018-09-26T23:03:51.881Z,99601.72
2018-09-26T23:06:20.185Z,99606.07
2018-09-26T23:08:48.337Z,99605.53
2018-09-26T23:11:16.508Z,99611.31
2018-09-26T23:13:44.693Z,99601.53
2018-09-26T23:16:12.857Z,99603.98
2018-09-26T23:18:41.038Z,99596.95
2018-09-26T23:21:09.201Z,99591.51
2018-09-26T23:23:37.404Z,99592.86
2018-09-26T23:26:05.664Z,99585.33
2018-09-26T23:28:33.836Z,99589.69
2018-09-26T23:31:01.994Z,99584.03
2018-09-26T23:33:30.140Z,99588.09
2018-09-26T23:35:58.360Z,99592.13
2018-09-26T23:38:26.512Z,99591.59
2018-09-26T23:40:54.660Z,99587.00
2018-09-26T23:43:22.820Z,99584.56
2018-09-26T23:45:51.045Z,99589.67
2018-09-26T23:48:20.236Z,99594.00
2018-09-26T23:50:48.467Z,99595.09
2018-09-26T23:53:16.690Z,99594.55
2018-09-26T23:55:44.885Z,99594.27
2018-09-26T23:58:13.046Z,99592.41
